Briefing drone pour Chabeuil

Rechercher une autre localisation

Conditions de vol :


Nous sommes le : Vendredi 06 août 2021
Il est 23:53 UTC (01:53 LT)

Lever de soleil : 04:05 UTC (06:05 LT)
Coucher de soleil : 19:26 UTC (21:26 LT)

Météo

L'essentiel des conditions de vol

VIGILANCE MÉTÉO FRANCE - Drôme (26)
Pas de vigilances particulieres
CARTE TEMSI
CARTES DES FRONTS
METAR de LFLU
LFLU 051800Z AUTO 20002KT 9999 FEW082 24/15 Q1010

Date d'émission: 05/08/2021
Heure d'émission: 18:00 UTC
Vent: 200° pour 2 KT (4 km/h)
Visibilité horizontale: > 10 km
Plafond :
- Peu de nuages à 8200ft (2499m)
Température: 24 °C
Point de rosée: 15 °C
Humidité: 57%
Pression (QNH): 1010 hPa
Prévision 24h pour Valence (6 km)
Vent : 15° pour 2 KT (6 km/h)
Temperature Maxi: 24 °C
Temperature Min: 24 °C
Humidité : 57%
Condition : Partiellement nuageux



Warning: count(): Parameter must be an array or an object that implements Countable in /homepages/6/d509196549/htdocs/droneoxygene/briefing.php on line 743
WEBCAM POUR CHABEUIL

Réglementation

Voler en sécurité

CARTES AERONAUTIQUE 1/500.000
CARTES VAC (LFLU)
SUP AIP




Chargement des AIP...
NOTAM (CHABEUIL + Terrain à proximité / FIR )




Chargement des NOTAMS...
CONTACT PREFECTURE 26
Drôme (26) : ddt-satem@drome.gouv.fr


Avertissement : Les données mises à disposition sont indicatives. Oxygène Drone ne pourra être tenu responsable de dégâts causés aux biens et aux personnes.